createdAt,value
2018-12-08T00:01:20.769Z,92.60
2018-12-08T00:04:08.457Z,91.20
2018-12-08T00:06:42.414Z,91.20
2018-12-08T00:09:16.225Z,92.60
2018-12-08T00:11:47.070Z,92.70
2018-12-08T00:14:17.965Z,93.60
2018-12-08T00:22:56.751Z,93.20
2018-12-08T00:28:25.714Z,92.20
2018-12-08T00:31:04.738Z,92.80
2018-12-08T00:33:38.685Z,93.90
2018-12-08T00:36:18.863Z,94.60
2018-12-08T00:39:09.121Z,94.20
2018-12-08T00:41:49.379Z,92.10
2018-12-08T00:44:29.125Z,90.40
2018-12-08T00:47:00.407Z,90.10
2018-12-08T00:49:34.265Z,89.80
2018-12-08T00:52:05.780Z,90.90
2018-12-08T00:54:39.076Z,90.80
2018-12-08T00:57:14.745Z,90.00
2018-12-08T00:59:48.642Z,90.50
2018-12-08T01:02:22.439Z,90.10
2018-12-08T01:04:56.120Z,87.10
2018-12-08T01:07:36.216Z,87.80
2018-12-08T01:10:09.734Z,88.40
2018-12-08T01:12:50.005Z,87.10
2018-12-08T01:15:38.130Z,86.40
2018-12-08T01:18:28.738Z,87.80
2018-12-08T01:21:09.253Z,86.90
2018-12-08T01:23:42.716Z,89.00
2018-12-08T01:26:12.170Z,85.30
2018-12-08T01:28:45.358Z,85.80
2018-12-08T01:31:36.064Z,85.60
2018-12-08T01:37:02.529Z,85.10
2018-12-08T01:39:36.041Z,85.40
2018-12-08T01:42:16.116Z,85.00
2018-12-08T01:44:55.819Z,84.90
2018-12-08T01:47:46.272Z,86.30
2018-12-08T01:50:20.233Z,87.40
2018-12-08T01:52:51.483Z,86.70
2018-12-08T01:58:37.259Z,87.30
2018-12-08T02:01:10.947Z,88.00
2018-12-08T02:06:37.403Z,90.00
2018-12-08T02:09:17.391Z,90.70
2018-12-08T02:11:50.916Z,90.60
2018-12-08T02:14:31.134Z,90.00
2018-12-08T02:17:04.436Z,90.00
2018-12-08T02:19:44.663Z,88.70
2018-12-08T02:22:24.488Z,88.80
2018-12-08T02:25:04.055Z,89.20
2018-12-08T02:27:37.347Z,90.60
2018-12-08T02:30:17.500Z,91.10
2018-12-08T02:32:57.290Z,91.00
2018-12-08T02:38:37.645Z,91.90
2018-12-08T02:41:09.033Z,91.90
2018-12-08T02:43:48.762Z,92.40
2018-12-08T02:46:19.483Z,92.40
2018-12-08T02:48:50.257Z,91.60
2018-12-08T02:51:20.977Z,91.50
2018-12-08T02:54:00.832Z,91.40
2018-12-08T02:56:34.181Z,91.30
2018-12-08T02:59:09.011Z,91.00
2018-12-08T03:01:38.358Z,90.90
2018-12-08T03:04:18.247Z,90.70
2018-12-08T03:06:49.122Z,90.80
2018-12-08T03:12:29.344Z,91.00
2018-12-08T03:15:09.349Z,90.80
2018-12-08T03:17:40.215Z,90.40
2018-12-08T03:20:13.561Z,90.60
2018-12-08T03:25:55.812Z,90.80
2018-12-08T03:28:29.143Z,90.40
2018-12-08T03:31:19.938Z,90.70
2018-12-08T03:33:53.937Z,91.10
2018-12-08T03:36:42.668Z,90.40
2018-12-08T03:39:14.035Z,88.80
2018-12-08T03:41:53.732Z,88.90
2018-12-08T03:44:26.837Z,88.40
2018-12-08T03:47:00.501Z,86.50
2018-12-08T03:49:51.257Z,85.90
2018-12-08T03:52:20.630Z,84.50
2018-12-08T03:58:00.733Z,84.00
2018-12-08T04:00:30.270Z,84.20
2018-12-08T04:03:01.198Z,85.20
2018-12-08T04:05:40.832Z,88.10
2018-12-08T04:08:14.381Z,88.50
2018-12-08T04:10:54.655Z,90.10
2018-12-08T04:13:25.700Z,90.80
2018-12-08T04:15:56.327Z,90.80
2018-12-08T04:18:27.128Z,91.50
2018-12-08T04:21:06.908Z,91.30
2018-12-08T04:23:37.629Z,91.40
2018-12-08T04:29:07.621Z,92.40
2018-12-08T04:34:48.337Z,93.60
2018-12-08T04:37:19.535Z,93.80
2018-12-08T04:39:52.745Z,94.40
2018-12-08T04:45:33.284Z,93.90
2018-12-08T04:48:14.383Z,93.70
2018-12-08T04:50:47.563Z,94.00
2018-12-08T04:53:27.878Z,95.10
2018-12-08T04:55:58.876Z,96.30
2018-12-08T04:58:42.708Z,97.40
2018-12-08T05:01:28.901Z,97.30
2018-12-08T05:04:00.185Z,97.60
2018-12-08T05:06:33.648Z,98.00
2018-12-08T05:09:04.804Z,99.90
2018-12-08T05:11:44.532Z,99.90
2018-12-08T05:14:24.266Z,99.90
2018-12-08T05:16:55.161Z,99.90
2018-12-08T05:19:43.429Z,99.90
2018-12-08T05:22:23.825Z,99.90
2018-12-08T05:25:06.407Z,99.90
2018-12-08T05:27:37.527Z,99.90
2018-12-08T05:30:15.025Z,99.90
2018-12-08T05:32:45.913Z,99.90
2018-12-08T05:38:14.185Z,99.90
2018-12-08T05:43:40.445Z,99.90
2018-12-08T05:46:14.250Z,98.80
2018-12-08T05:48:55.279Z,98.20
2018-12-08T05:51:35.241Z,97.80
2018-12-08T05:54:09.043Z,97.20
2018-12-08T05:56:39.683Z,96.40
2018-12-08T05:59:11.074Z,96.90
2018-12-08T06:01:51.467Z,95.80
2018-12-08T06:07:31.258Z,95.10
2018-12-08T06:13:05.302Z,95.10
2018-12-08T06:15:36.587Z,95.20
2018-12-08T06:18:18.372Z,95.90
2018-12-08T06:20:48.887Z,96.10
2018-12-08T06:23:31.603Z,96.60
2018-12-08T06:26:08.431Z,97.40
2018-12-08T06:28:48.346Z,97.00
2018-12-08T06:31:22.018Z,96.80
2018-12-08T06:34:02.819Z,96.80
2018-12-08T06:36:44.454Z,96.70
2018-12-08T06:39:24.493Z,96.40
2018-12-08T06:42:04.751Z,97.30
2018-12-08T06:44:55.249Z,96.70
2018-12-08T06:47:26.918Z,97.50
2018-12-08T06:50:01.124Z,97.40
2018-12-08T06:52:51.788Z,97.60
2018-12-08T06:55:32.228Z,97.10
2018-12-08T06:58:03.332Z,97.40
2018-12-08T07:00:41.401Z,96.40
2018-12-08T07:03:19.354Z,96.20
2018-12-08T07:05:50.731Z,95.90
2018-12-08T07:08:30.452Z,94.60
2018-12-08T07:11:10.207Z,94.60
2018-12-08T07:13:44.213Z,93.70
2018-12-08T07:16:15.158Z,94.30
2018-12-08T07:18:53.950Z,93.80
2018-12-08T07:21:34.049Z,93.80
2018-12-08T07:24:07.107Z,93.50
2018-12-08T07:26:38.010Z,94.50
2018-12-08T07:29:09.791Z,94.10
2018-12-08T07:31:42.903Z,94.10
2018-12-08T07:34:16.689Z,93.40
2018-12-08T07:36:50.355Z,93.60
2018-12-08T07:39:21.091Z,93.20
2018-12-08T07:41:52.274Z,92.50
2018-12-08T07:44:26.063Z,92.80
2018-12-08T07:46:58.498Z,93.10
2018-12-08T07:49:38.880Z,93.10
2018-12-08T07:52:10.146Z,92.30
2018-12-08T07:54:47.720Z,92.00
2018-12-08T07:57:18.696Z,92.00
2018-12-08T07:59:52.349Z,91.80
2018-12-08T08:02:25.805Z,92.30
2018-12-08T08:04:57.184Z,92.70
2018-12-08T08:07:28.217Z,92.70
2018-12-08T08:09:59.778Z,93.10
2018-12-08T08:12:39.336Z,93.50
2018-12-08T08:15:11.130Z,93.80
2018-12-08T08:17:42.377Z,93.60
2018-12-08T08:20:12.220Z,93.70
2018-12-08T08:22:52.260Z,94.40
2018-12-08T08:25:32.600Z,94.30
2018-12-08T08:28:10.404Z,94.30
2018-12-08T08:30:45.035Z,94.30
2018-12-08T08:33:25.533Z,94.90
2018-12-08T08:35:57.206Z,94.90
2018-12-08T08:38:41.095Z,95.60
2018-12-08T08:41:12.224Z,95.40
2018-12-08T08:43:43.750Z,95.40
2018-12-08T08:46:23.605Z,95.30
2018-12-08T08:49:11.598Z,94.80
2018-12-08T08:52:00.745Z,95.60
2018-12-08T08:54:33.923Z,96.60
2018-12-08T08:57:22.278Z,96.70
2018-12-08T09:00:02.179Z,97.50
2018-12-08T09:02:38.713Z,97.10
2018-12-08T09:05:08.630Z,96.70
2018-12-08T09:07:42.186Z,96.90
2018-12-08T09:10:13.269Z,96.90
2018-12-08T09:12:48.576Z,96.60
2018-12-08T09:15:23.606Z,96.60
2018-12-08T09:18:11.218Z,97.20
2018-12-08T09:20:51.236Z,97.20
2018-12-08T09:23:31.412Z,97.40
2018-12-08T09:28:54.174Z,97.20
2018-12-08T09:31:34.169Z,98.60
2018-12-08T09:34:05.692Z,97.90
2018-12-08T09:42:04.114Z,97.10
2018-12-08T09:44:43.739Z,96.20
2018-12-08T09:47:24.041Z,96.10
2018-12-08T09:49:59.231Z,97.00
2018-12-08T09:52:32.995Z,96.80
2018-12-08T09:55:04.550Z,97.40
2018-12-08T09:57:35.931Z,97.20
2018-12-08T10:00:07.884Z,96.80
2018-12-08T10:02:41.963Z,97.50
2018-12-08T10:05:15.193Z,98.80
2018-12-08T10:07:48.689Z,98.90
2018-12-08T10:10:22.441Z,97.10
2018-12-08T10:13:02.386Z,97.40
2018-12-08T10:15:33.798Z,97.40
2018-12-08T10:18:03.272Z,97.10
2018-12-08T10:20:36.858Z,96.90
2018-12-08T10:23:07.625Z,97.10
2018-12-08T10:25:47.940Z,95.00
2018-12-08T10:28:27.620Z,95.60
2018-12-08T10:30:58.991Z,95.60
2018-12-08T10:33:32.623Z,95.60
2018-12-08T10:36:03.855Z,95.50
2018-12-08T10:38:44.048Z,94.40
2018-12-08T10:41:15.422Z,95.00
2018-12-08T10:43:55.272Z,94.60
2018-12-08T10:46:36.030Z,93.40
2018-12-08T10:49:10.287Z,94.40
2018-12-08T10:51:40.886Z,95.90
2018-12-08T10:54:15.001Z,95.10
2018-12-08T10:57:05.255Z,95.50
2018-12-08T10:59:55.715Z,95.80
2018-12-08T11:02:40.161Z,94.90
2018-12-08T11:05:11.470Z,94.70
2018-12-08T11:07:43.635Z,94.20
2018-12-08T11:10:15.250Z,94.40
2018-12-08T11:12:46.129Z,94.60
2018-12-08T11:15:27.515Z,94.20
2018-12-08T11:21:05.993Z,94.40
2018-12-08T11:23:38.423Z,94.70
2018-12-08T11:26:09.499Z,93.40
2018-12-08T11:28:38.957Z,93.60
2018-12-08T11:31:09.753Z,94.50
2018-12-08T11:33:40.660Z,93.00
2018-12-08T11:36:12.066Z,93.50
2018-12-08T11:38:41.538Z,92.70
2018-12-08T11:41:13.230Z,92.20
2018-12-08T11:43:45.433Z,91.30
2018-12-08T11:46:14.897Z,91.80
2018-12-08T11:48:48.993Z,90.70
2018-12-08T11:51:22.811Z,90.70
2018-12-08T11:53:53.869Z,90.50
2018-12-08T11:56:28.318Z,92.00
2018-12-08T11:58:59.054Z,91.40
2018-12-08T12:01:30.326Z,90.70
2018-12-08T12:04:10.605Z,90.30
2018-12-08T12:06:44.613Z,89.30
2018-12-08T12:09:15.554Z,87.80
2018-12-08T12:11:46.548Z,88.30
2018-12-08T12:14:36.802Z,87.00
2018-12-08T12:17:07.710Z,89.40
2018-12-08T12:19:41.323Z,90.10
2018-12-08T12:22:12.713Z,91.80
2018-12-08T12:24:43.700Z,91.90
2018-12-08T12:27:13.010Z,91.60
2018-12-08T12:29:51.132Z,92.70
2018-12-08T12:32:21.745Z,93.30
2018-12-08T12:35:02.117Z,90.70
2018-12-08T12:37:50.202Z,91.90
2018-12-08T12:43:26.346Z,94.80
2018-12-08T12:45:57.302Z,94.90
2018-12-08T12:48:28.784Z,94.00
2018-12-08T12:51:00.480Z,94.20
2018-12-08T12:53:31.751Z,93.90
2018-12-08T12:56:03.943Z,94.20
2018-12-08T12:58:36.197Z,94.70
2018-12-08T13:01:08.075Z,94.80
2018-12-08T13:03:37.261Z,94.00
2018-12-08T13:06:08.727Z,93.20
2018-12-08T13:08:39.774Z,93.70
2018-12-08T13:11:11.650Z,95.90
2018-12-08T13:13:45.050Z,96.00
2018-12-08T13:16:19.725Z,95.60
2018-12-08T13:18:57.790Z,95.50
2018-12-08T13:21:38.610Z,95.40
2018-12-08T13:24:10.666Z,96.00
2018-12-08T13:26:48.949Z,96.50
2018-12-08T13:29:29.037Z,96.80
2018-12-08T13:31:58.294Z,95.80
2018-12-08T13:34:31.738Z,95.80
2018-12-08T13:37:02.910Z,95.10
2018-12-08T13:39:31.914Z,95.10
2018-12-08T13:42:11.856Z,95.40
2018-12-08T13:44:51.474Z,95.40
2018-12-08T13:47:22.954Z,95.20
2018-12-08T13:50:03.201Z,95.70
2018-12-08T13:52:34.370Z,96.50
2018-12-08T13:55:14.370Z,96.80
2018-12-08T13:57:45.327Z,98.10
2018-12-08T14:00:25.069Z,99.80
2018-12-08T14:03:02.533Z,99.90
2018-12-08T14:05:43.114Z,99.90
2018-12-08T14:08:14.641Z,99.90
2018-12-08T14:10:54.315Z,99.90
2018-12-08T14:13:31.486Z,99.90
2018-12-08T14:16:02.742Z,99.90
2018-12-08T14:18:43.671Z,99.90
2018-12-08T14:21:14.374Z,99.90
2018-12-08T14:23:47.634Z,99.90
2018-12-08T14:26:16.889Z,99.90
2018-12-08T14:28:50.971Z,99.90
2018-12-08T14:31:20.988Z,99.90
2018-12-08T14:36:56.635Z,99.90
2018-12-08T14:39:38.712Z,99.90
2018-12-08T14:42:28.776Z,99.90
2018-12-08T14:48:05.406Z,99.90
2018-12-08T14:50:38.592Z,99.90
2018-12-08T14:53:18.986Z,99.90
2018-12-08T15:01:48.087Z,99.90
2018-12-08T15:07:28.600Z,99.90
2018-12-08T15:10:09.387Z,99.90
2018-12-08T15:12:41.623Z,99.90
2018-12-08T15:15:12.804Z,99.90
2018-12-08T15:20:45.432Z,99.90
2018-12-08T15:23:16.723Z,99.90
2018-12-08T15:25:48.157Z,99.90
2018-12-08T15:31:24.783Z,99.90
2018-12-08T15:33:56.753Z,99.90
2018-12-08T15:36:27.878Z,99.90
2018-12-08T15:39:09.351Z,99.90
2018-12-08T15:41:49.742Z,99.90
2018-12-08T15:44:33.602Z,99.90
2018-12-08T15:47:13.955Z,99.90
2018-12-08T15:49:54.566Z,99.90
2018-12-08T15:55:18.853Z,99.90
2018-12-08T15:57:52.385Z,99.90
2018-12-08T16:00:32.668Z,99.90
2018-12-08T16:03:13.649Z,99.90
2018-12-08T16:05:46.871Z,99.90
2018-12-08T16:11:27.642Z,99.90
2018-12-08T16:14:14.409Z,99.90
2018-12-08T16:16:48.392Z,99.90
2018-12-08T16:19:28.745Z,99.90
2018-12-08T16:22:08.784Z,99.90
2018-12-08T16:24:49.696Z,99.90
2018-12-08T16:27:21.154Z,99.90
2018-12-08T16:32:50.128Z,99.90
2018-12-08T16:38:39.366Z,99.90
2018-12-08T16:41:30.000Z,99.90
2018-12-08T16:44:04.244Z,99.90
2018-12-08T16:46:45.302Z,99.90
2018-12-08T16:52:25.913Z,99.90
2018-12-08T16:55:03.550Z,99.90
2018-12-08T16:57:51.513Z,99.90
2018-12-08T17:00:42.250Z,99.90
2018-12-08T17:03:22.293Z,99.90
2018-12-08T17:06:02.098Z,99.90
2018-12-08T17:08:35.193Z,99.90
2018-12-08T17:11:09.822Z,99.90
2018-12-08T17:13:39.462Z,99.90
2018-12-08T17:16:27.472Z,99.90
2018-12-08T17:19:07.747Z,99.80
2018-12-08T17:21:45.371Z,99.40
2018-12-08T17:24:32.967Z,99.60
2018-12-08T17:27:20.727Z,99.40
2018-12-08T17:30:00.994Z,99.60
2018-12-08T17:32:31.847Z,99.90
2018-12-08T17:35:11.762Z,99.90
2018-12-08T17:37:49.797Z,99.90
2018-12-08T17:40:38.356Z,99.90
2018-12-08T17:43:09.652Z,99.60
2018-12-08T17:45:40.648Z,98.20
2018-12-08T17:48:30.690Z,99.50
2018-12-08T17:51:10.607Z,99.20
2018-12-08T17:53:54.477Z,98.70
2018-12-08T17:56:31.734Z,99.00
2018-12-08T17:59:22.611Z,98.50
2018-12-08T18:01:56.683Z,97.80
2018-12-08T18:04:30.323Z,97.80
2018-12-08T18:07:01.846Z,97.90
2018-12-08T18:09:41.362Z,97.30
2018-12-08T18:12:22.269Z,97.00
2018-12-08T18:15:10.686Z,97.50
2018-12-08T18:17:42.003Z,97.70
2018-12-08T18:20:26.315Z,97.80
2018-12-08T18:23:06.021Z,97.70
2018-12-08T18:25:37.074Z,97.90
2018-12-08T18:31:13.764Z,97.30
2018-12-08T18:33:54.134Z,97.50
2018-12-08T18:36:27.679Z,97.80
2018-12-08T18:39:01.304Z,97.70
2018-12-08T18:41:48.884Z,98.40
2018-12-08T18:44:35.599Z,98.60
2018-12-08T18:47:07.058Z,99.90
2018-12-08T18:49:48.712Z,99.90
2018-12-08T18:52:29.343Z,99.90
2018-12-08T18:55:02.470Z,99.90
2018-12-08T18:57:36.534Z,99.90
2018-12-08T19:00:08.574Z,99.90
2018-12-08T19:02:56.915Z,99.90
2018-12-08T19:05:37.076Z,99.90
2018-12-08T19:08:17.343Z,99.90
2018-12-08T19:10:48.513Z,99.90
2018-12-08T19:13:18.814Z,99.90
2018-12-08T19:15:52.601Z,99.90
2018-12-08T19:18:23.836Z,99.90
2018-12-08T19:21:12.001Z,99.90
2018-12-08T19:23:44.113Z,99.90
2018-12-08T19:26:24.238Z,99.90
2018-12-08T19:29:03.776Z,99.90
2018-12-08T19:31:44.796Z,99.90
2018-12-08T19:34:21.400Z,99.90
2018-12-08T19:37:05.086Z,99.90
2018-12-08T19:39:53.128Z,99.90
2018-12-08T19:42:33.727Z,99.90
2018-12-08T19:45:04.929Z,99.90
2018-12-08T19:47:38.738Z,99.90
2018-12-08T19:50:12.603Z,99.90
2018-12-08T19:52:44.129Z,99.90
2018-12-08T19:55:17.372Z,99.90
2018-12-08T19:57:57.612Z,99.90
2018-12-08T20:00:28.305Z,99.90
2018-12-08T20:03:01.662Z,99.90
2018-12-08T20:05:36.595Z,99.90
2018-12-08T20:08:08.037Z,99.90
2018-12-08T20:10:48.833Z,99.90
2018-12-08T20:13:22.272Z,99.90
2018-12-08T20:15:55.722Z,99.90
2018-12-08T20:18:35.874Z,99.90
2018-12-08T20:21:15.664Z,99.90
2018-12-08T20:23:55.453Z,99.90
2018-12-08T20:26:26.856Z,99.90
2018-12-08T20:28:58.918Z,99.90
2018-12-08T20:31:39.063Z,99.90
2018-12-08T20:34:09.974Z,99.90
2018-12-08T20:39:40.351Z,99.90
2018-12-08T20:42:21.977Z,99.90
2018-12-08T20:44:52.857Z,99.90
2018-12-08T20:47:26.036Z,99.90
2018-12-08T20:50:06.146Z,99.90
2018-12-08T20:52:54.144Z,99.90
2018-12-08T20:55:32.145Z,99.90
2018-12-08T20:58:12.489Z,99.90
2018-12-08T21:03:52.397Z,99.90
2018-12-08T21:06:23.756Z,99.90
2018-12-08T21:08:57.011Z,99.90
2018-12-08T21:11:37.334Z,99.90
2018-12-08T21:14:17.127Z,99.90
2018-12-08T21:16:50.650Z,99.90
2018-12-08T21:19:30.812Z,99.90
2018-12-08T21:22:11.720Z,99.90
2018-12-08T21:24:52.170Z,99.90
2018-12-08T21:27:23.108Z,99.90
2018-12-08T21:30:02.680Z,99.90
2018-12-08T21:32:42.337Z,99.90
2018-12-08T21:35:15.602Z,99.90
2018-12-08T21:37:49.398Z,99.90
2018-12-08T21:40:30.455Z,99.90
2018-12-08T21:43:10.592Z,99.90
2018-12-08T21:45:50.474Z,99.90
2018-12-08T21:48:30.229Z,99.90
2018-12-08T21:51:09.927Z,99.90
2018-12-08T21:56:46.110Z,99.90
2018-12-08T21:59:19.340Z,99.90
2018-12-08T22:01:59.343Z,99.90
2018-12-08T22:04:39.188Z,99.90
2018-12-08T22:07:10.737Z,99.90
2018-12-08T22:09:42.243Z,99.90
2018-12-08T22:12:21.767Z,99.90
2018-12-08T22:15:09.942Z,99.90
2018-12-08T22:17:44.471Z,99.90
2018-12-08T22:20:17.495Z,99.90
2018-12-08T22:22:48.642Z,99.90
2018-12-08T22:25:38.915Z,99.90
2018-12-08T22:28:16.735Z,99.90
2018-12-08T22:30:59.119Z,99.90
2018-12-08T22:33:38.939Z,99.90
2018-12-08T22:36:12.001Z,99.90
2018-12-08T22:38:52.029Z,99.90
2018-12-08T22:41:31.662Z,99.90
2018-12-08T22:44:07.008Z,99.90
2018-12-08T22:46:37.627Z,99.90
2018-12-08T22:52:05.215Z,99.90
2018-12-08T22:54:45.869Z,99.90
2018-12-08T22:57:19.386Z,99.90
2018-12-08T22:59:53.331Z,99.90
2018-12-08T23:02:30.859Z,99.90
2018-12-08T23:05:18.545Z,99.90
2018-12-08T23:07:52.398Z,99.90
2018-12-08T23:10:23.654Z,99.90
2018-12-08T23:12:57.024Z,99.90
2018-12-08T23:15:30.905Z,99.90
2018-12-08T23:18:18.664Z,99.90
2018-12-08T23:23:47.847Z,99.90
2018-12-08T23:26:27.869Z,99.90
2018-12-08T23:28:58.694Z,99.90
2018-12-08T23:31:31.979Z,99.90
2018-12-08T23:37:18.969Z,99.90
2018-12-08T23:39:59.172Z,99.90
2018-12-08T23:56:13.478Z,99.90
